sensor_id;sensor_type;location;lat;lon;timestamp;temperature;humidity
37432;DHT22;23292;51.300;6.252;2022-10-23T00:01:21;11.30;99.90
37432;DHT22;23292;51.300;6.252;2022-10-23T00:04:03;11.30;99.90
37432;DHT22;23292;51.300;6.252;2022-10-23T00:06:32;11.30;99.90
37432;DHT22;23292;51.300;6.252;2022-10-23T00:08:59;11.20;99.90
37432;DHT22;23292;51.300;6.252;2022-10-23T00:11:27;11.30;99.90
37432;DHT22;23292;51.300;6.252;2022-10-23T00:13:57;11.30;99.90
37432;DHT22;23292;51.300;6.252;2022-10-23T00:16:25;11.30;99.90
37432;DHT22;23292;51.300;6.252;2022-10-23T00:18:52;11.30;99.90
37432;DHT22;23292;51.300;6.252;2022-10-23T00:21:19;11.30;99.90
37432;DHT22;23292;51.300;6.252;2022-10-23T00:23:46;11.40;99.90
37432;DHT22;23292;51.300;6.252;2022-10-23T00:26:13;11.40;99.90
37432;DHT22;23292;51.300;6.252;2022-10-23T00:28:47;11.40;99.90
37432;DHT22;23292;51.300;6.252;2022-10-23T00:31:15;11.30;99.90
37432;DHT22;23292;51.300;6.252;2022-10-23T00:33:42;11.30;99.90
37432;DHT22;23292;51.300;6.252;2022-10-23T00:36:12;11.40;99.90
37432;DHT22;23292;51.300;6.252;2022-10-23T00:38:42;11.40;99.90
37432;DHT22;23292;51.300;6.252;2022-10-23T00:41:31;11.50;99.90
37432;DHT22;23292;51.300;6.252;2022-10-23T00:45:08;11.50;99.90
37432;DHT22;23292;51.300;6.252;2022-10-23T00:46:53;11.60;99.90
37432;DHT22;23292;51.300;6.252;2022-10-23T00:49:20;11.70;99.90
37432;DHT22;23292;51.300;6.252;2022-10-23T00:51:54;11.80;99.90
37432;DHT22;23292;51.300;6.252;2022-10-23T00:54:25;11.80;99.90
37432;DHT22;23292;51.300;6.252;2022-10-23T00:56:58;11.80;99.90
37432;DHT22;23292;51.300;6.252;2022-10-23T00:59:27;11.80;99.90
37432;DHT22;23292;51.300;6.252;2022-10-23T01:01:54;11.70;99.90
37432;DHT22;23292;51.300;6.252;2022-10-23T01:04:22;11.70;99.90
37432;DHT22;23292;51.300;6.252;2022-10-23T01:09:47;11.60;99.90
37432;DHT22;23292;51.300;6.252;2022-10-23T01:17:41;11.50;99.90
37432;DHT22;23292;51.300;6.252;2022-10-23T01:23:13;11.50;99.90
37432;DHT22;23292;51.300;6.252;2022-10-23T01:28:42;11.50;99.90
37432;DHT22;23292;51.300;6.252;2022-10-23T01:31:14;11.50;99.90
37432;DHT22;23292;51.300;6.252;2022-10-23T01:33:47;11.50;99.90
37432;DHT22;23292;51.300;6.252;2022-10-23T01:36:26;11.60;99.90
37432;DHT22;23292;51.300;6.252;2022-10-23T01:39:17;11.50;99.90
37432;DHT22;23292;51.300;6.252;2022-10-23T01:42:02;11.50;99.90
37432;DHT22;23292;51.300;6.252;2022-10-23T01:44:35;11.40;99.90
37432;DHT22;23292;51.300;6.252;2022-10-23T01:47:06;11.40;99.90
37432;DHT22;23292;51.300;6.252;2022-10-23T01:49:45;11.40;99.90
37432;DHT22;23292;51.300;6.252;2022-10-23T01:52:15;11.40;99.90
37432;DHT22;23292;51.300;6.252;2022-10-23T01:54:47;11.40;99.90
37432;DHT22;23292;51.300;6.252;2022-10-23T01:57:17;11.40;99.90
37432;DHT22;23292;51.300;6.252;2022-10-23T01:59:50;11.40;99.90
37432;DHT22;23292;51.300;6.252;2022-10-23T02:02:19;11.40;99.90
37432;DHT22;23292;51.300;6.252;2022-10-23T02:07:48;11.50;99.90
37432;DHT22;23292;51.300;6.252;2022-10-23T02:10:16;11.50;99.90
37432;DHT22;23292;51.300;6.252;2022-10-23T02:15:44;11.50;99.90
37432;DHT22;23292;51.300;6.252;2022-10-23T02:18:40;11.50;99.90
37432;DHT22;23292;51.300;6.252;2022-10-23T02:21:12;11.50;99.90
37432;DHT22;23292;51.300;6.252;2022-10-23T02:23:50;11.50;99.90
37432;DHT22;23292;51.300;6.252;2022-10-23T02:26:25;11.50;99.90
37432;DHT22;23292;51.300;6.252;2022-10-23T02:29:16;11.60;99.90
37432;DHT22;23292;51.300;6.252;2022-10-23T02:31:45;11.60;99.90
37432;DHT22;23292;51.300;6.252;2022-10-23T02:34:11;11.70;99.90
37432;DHT22;23292;51.300;6.252;2022-10-23T02:36:39;11.70;99.90
37432;DHT22;23292;51.300;6.252;2022-10-23T02:39:06;11.70;99.90
37432;DHT22;23292;51.300;6.252;2022-10-23T02:41:43;11.60;99.90
37432;DHT22;23292;51.300;6.252;2022-10-23T02:47:24;11.60;99.90
37432;DHT22;23292;51.300;6.252;2022-10-23T02:50:13;11.60;99.90
37432;DHT22;23292;51.300;6.252;2022-10-23T02:53:13;11.60;99.90
37432;DHT22;23292;51.300;6.252;2022-10-23T03:00:57;11.70;99.90
37432;DHT22;23292;51.300;6.252;2022-10-23T03:03:29;11.70;99.90
37432;DHT22;23292;51.300;6.252;2022-10-23T03:05:57;11.70;99.90
37432;DHT22;23292;51.300;6.252;2022-10-23T03:08:24;11.70;99.90
37432;DHT22;23292;51.300;6.252;2022-10-23T03:10:51;11.70;99.90
37432;DHT22;23292;51.300;6.252;2022-10-23T03:13:19;11.70;99.90
37432;DHT22;23292;51.300;6.252;2022-10-23T03:15:46;11.70;99.90
37432;DHT22;23292;51.300;6.252;2022-10-23T03:18:13;11.70;99.90
37432;DHT22;23292;51.300;6.252;2022-10-23T03:20:45;11.80;99.90
37432;DHT22;23292;51.300;6.252;2022-10-23T03:23:13;11.80;99.90
37432;DHT22;23292;51.300;6.252;2022-10-23T03:25:41;11.70;99.90
37432;DHT22;23292;51.300;6.252;2022-10-23T03:28:09;11.70;99.90
37432;DHT22;23292;51.300;6.252;2022-10-23T03:30:36;11.80;99.90
37432;DHT22;23292;51.300;6.252;2022-10-23T03:33:03;11.80;99.90
37432;DHT22;23292;51.300;6.252;2022-10-23T03:35:33;11.90;99.90
37432;DHT22;23292;51.300;6.252;2022-10-23T03:38:00;11.90;99.90
37432;DHT22;23292;51.300;6.252;2022-10-23T03:40:27;12.00;99.90
37432;DHT22;23292;51.300;6.252;2022-10-23T03:42:54;11.90;99.90
37432;DHT22;23292;51.300;6.252;2022-10-23T03:45:20;12.00;99.90
37432;DHT22;23292;51.300;6.252;2022-10-23T03:47:47;12.00;99.90
37432;DHT22;23292;51.300;6.252;2022-10-23T03:50:16;12.10;99.90
37432;DHT22;23292;51.300;6.252;2022-10-23T03:52:43;12.10;99.90
37432;DHT22;23292;51.300;6.252;2022-10-23T03:55:11;12.20;99.90
37432;DHT22;23292;51.300;6.252;2022-10-23T03:57:38;12.20;99.90
37432;DHT22;23292;51.300;6.252;2022-10-23T04:00:06;12.20;99.90
37432;DHT22;23292;51.300;6.252;2022-10-23T04:02:42;12.20;99.90
37432;DHT22;23292;51.300;6.252;2022-10-23T04:05:09;12.20;99.90
37432;DHT22;23292;51.300;6.252;2022-10-23T04:07:38;12.20;99.90
37432;DHT22;23292;51.300;6.252;2022-10-23T04:10:05;12.30;99.90
37432;DHT22;23292;51.300;6.252;2022-10-23T04:12:33;12.30;99.90
37432;DHT22;23292;51.300;6.252;2022-10-23T04:15:00;12.30;99.90
37432;DHT22;23292;51.300;6.252;2022-10-23T04:17:26;12.30;99.90
37432;DHT22;23292;51.300;6.252;2022-10-23T04:19:58;12.30;99.90
37432;DHT22;23292;51.300;6.252;2022-10-23T04:22:26;12.30;99.90
37432;DHT22;23292;51.300;6.252;2022-10-23T04:24:54;12.30;99.90
37432;DHT22;23292;51.300;6.252;2022-10-23T04:27:21;12.30;99.90
37432;DHT22;23292;51.300;6.252;2022-10-23T04:29:48;12.30;99.90
37432;DHT22;23292;51.300;6.252;2022-10-23T04:32:15;12.40;99.90
37432;DHT22;23292;51.300;6.252;2022-10-23T04:34:43;12.40;99.90
37432;DHT22;23292;51.300;6.252;2022-10-23T04:37:09;12.40;99.90
37432;DHT22;23292;51.300;6.252;2022-10-23T04:39:37;12.40;99.90
37432;DHT22;23292;51.300;6.252;2022-10-23T04:42:03;12.40;99.90
37432;DHT22;23292;51.300;6.252;2022-10-23T04:44:30;12.30;99.90
37432;DHT22;23292;51.300;6.252;2022-10-23T04:46:56;12.30;99.90
37432;DHT22;23292;51.300;6.252;2022-10-23T04:49:23;12.40;99.90
37432;DHT22;23292;51.300;6.252;2022-10-23T04:52:11;12.30;99.90
37432;DHT22;23292;51.300;6.252;2022-10-23T04:54:44;12.30;99.90
37432;DHT22;23292;51.300;6.252;2022-10-23T04:57:25;12.40;99.90
37432;DHT22;23292;51.300;6.252;2022-10-23T04:59:59;12.40;99.90
37432;DHT22;23292;51.300;6.252;2022-10-23T05:02:26;12.50;99.90
37432;DHT22;23292;51.300;6.252;2022-10-23T05:04:53;12.40;99.90
37432;DHT22;23292;51.300;6.252;2022-10-23T05:07:33;12.30;99.90
37432;DHT22;23292;51.300;6.252;2022-10-23T05:10:08;12.40;99.90
37432;DHT22;23292;51.300;6.252;2022-10-23T05:12:39;12.40;99.90
37432;DHT22;23292;51.300;6.252;2022-10-23T05:15:06;12.40;99.90
37432;DHT22;23292;51.300;6.252;2022-10-23T05:17:34;12.30;99.90
37432;DHT22;23292;51.300;6.252;2022-10-23T05:20:08;12.30;99.90
37432;DHT22;23292;51.300;6.252;2022-10-23T05:22:39;12.30;99.90
37432;DHT22;23292;51.300;6.252;2022-10-23T05:25:09;12.30;99.90
37432;DHT22;23292;51.300;6.252;2022-10-23T05:27:36;12.30;99.90
37432;DHT22;23292;51.300;6.252;2022-10-23T05:30:07;12.40;99.90
37432;DHT22;23292;51.300;6.252;2022-10-23T05:32:36;12.40;99.90
37432;DHT22;23292;51.300;6.252;2022-10-23T05:35:18;12.40;99.90
37432;DHT22;23292;51.300;6.252;2022-10-23T05:37:50;12.50;99.90
37432;DHT22;23292;51.300;6.252;2022-10-23T05:40:21;12.50;99.90
37432;DHT22;23292;51.300;6.252;2022-10-23T05:42:52;12.50;99.90
37432;DHT22;23292;51.300;6.252;2022-10-23T05:45:27;12.50;99.90
37432;DHT22;23292;51.300;6.252;2022-10-23T05:48:19;12.50;99.90
37432;DHT22;23292;51.300;6.252;2022-10-23T05:51:21;12.40;99.90
37432;DHT22;23292;51.300;6.252;2022-10-23T05:54:14;12.50;99.90
37432;DHT22;23292;51.300;6.252;2022-10-23T05:57:00;12.40;99.90
37432;DHT22;23292;51.300;6.252;2022-10-23T05:59:31;12.30;99.90
37432;DHT22;23292;51.300;6.252;2022-10-23T06:02:18;12.40;99.90
37432;DHT22;23292;51.300;6.252;2022-10-23T06:04:52;12.40;99.90
37432;DHT22;23292;51.300;6.252;2022-10-23T06:07:26;12.40;99.90
37432;DHT22;23292;51.300;6.252;2022-10-23T06:09:59;12.30;99.90
37432;DHT22;23292;51.300;6.252;2022-10-23T06:12:26;12.30;99.90
37432;DHT22;23292;51.300;6.252;2022-10-23T06:14:52;12.30;99.90
37432;DHT22;23292;51.300;6.252;2022-10-23T06:17:25;12.20;99.90
37432;DHT22;23292;51.300;6.252;2022-10-23T06:19:52;12.20;99.90
37432;DHT22;23292;51.300;6.252;2022-10-23T06:22:19;12.20;99.90
37432;DHT22;23292;51.300;6.252;2022-10-23T06:25:00;12.30;99.90
37432;DHT22;23292;51.300;6.252;2022-10-23T06:27:28;12.30;99.90
37432;DHT22;23292;51.300;6.252;2022-10-23T06:29:54;12.30;99.90
37432;DHT22;23292;51.300;6.252;2022-10-23T06:32:21;12.40;99.90
37432;DHT22;23292;51.300;6.252;2022-10-23T06:35:04;12.40;99.90
37432;DHT22;23292;51.300;6.252;2022-10-23T06:37:32;12.40;99.90
37432;DHT22;23292;51.300;6.252;2022-10-23T06:40:17;12.40;99.90
37432;DHT22;23292;51.300;6.252;2022-10-23T06:43:05;12.40;99.90
37432;DHT22;23292;51.300;6.252;2022-10-23T06:45:54;12.50;99.90
37432;DHT22;23292;51.300;6.252;2022-10-23T06:48:44;12.60;99.90
37432;DHT22;23292;51.300;6.252;2022-10-23T06:51:17;12.60;99.90
37432;DHT22;23292;51.300;6.252;2022-10-23T06:53:45;12.70;99.90
37432;DHT22;23292;51.300;6.252;2022-10-23T06:56:31;12.70;99.90
37432;DHT22;23292;51.300;6.252;2022-10-23T06:58:59;12.70;99.90
37432;DHT22;23292;51.300;6.252;2022-10-23T07:01:28;12.70;99.90
37432;DHT22;23292;51.300;6.252;2022-10-23T07:03:55;12.70;99.90
37432;DHT22;23292;51.300;6.252;2022-10-23T07:06:24;12.80;99.90
37432;DHT22;23292;51.300;6.252;2022-10-23T07:08:52;13.00;99.90
37432;DHT22;23292;51.300;6.252;2022-10-23T07:11:44;12.90;99.90
37432;DHT22;23292;51.300;6.252;2022-10-23T07:14:11;13.00;99.90
37432;DHT22;23292;51.300;6.252;2022-10-23T07:16:38;12.90;99.90
37432;DHT22;23292;51.300;6.252;2022-10-23T07:19:07;13.00;99.90
37432;DHT22;23292;51.300;6.252;2022-10-23T07:21:52;13.10;99.90
37432;DHT22;23292;51.300;6.252;2022-10-23T07:24:37;13.20;99.90
37432;DHT22;23292;51.300;6.252;2022-10-23T07:27:25;13.20;99.90
37432;DHT22;23292;51.300;6.252;2022-10-23T07:29:55;13.30;99.90
37432;DHT22;23292;51.300;6.252;2022-10-23T07:32:22;13.40;99.90
37432;DHT22;23292;51.300;6.252;2022-10-23T07:35:19;13.40;99.90
37432;DHT22;23292;51.300;6.252;2022-10-23T07:38:04;13.50;99.90
37432;DHT22;23292;51.300;6.252;2022-10-23T07:40:35;13.60;99.90
37432;DHT22;23292;51.300;6.252;2022-10-23T07:43:03;13.60;99.90
37432;DHT22;23292;51.300;6.252;2022-10-23T07:45:30;13.80;99.90
37432;DHT22;23292;51.300;6.252;2022-10-23T07:48:03;13.90;99.90
37432;DHT22;23292;51.300;6.252;2022-10-23T07:50:46;14.00;99.90
37432;DHT22;23292;51.300;6.252;2022-10-23T07:53:16;14.10;99.90
37432;DHT22;23292;51.300;6.252;2022-10-23T07:56:15;14.20;99.90
37432;DHT22;23292;51.300;6.252;2022-10-23T07:59:01;14.30;99.90
37432;DHT22;23292;51.300;6.252;2022-10-23T08:03:59;14.40;99.90
37432;DHT22;23292;51.300;6.252;2022-10-23T08:06:27;14.60;99.90
37432;DHT22;23292;51.300;6.252;2022-10-23T08:08:54;14.70;99.90
37432;DHT22;23292;51.300;6.252;2022-10-23T08:11:23;14.90;99.90
37432;DHT22;23292;51.300;6.252;2022-10-23T08:13:55;15.10;99.90
37432;DHT22;23292;51.300;6.252;2022-10-23T08:16:25;15.20;99.90
37432;DHT22;23292;51.300;6.252;2022-10-23T08:19:10;15.30;99.90
37432;DHT22;23292;51.300;6.252;2022-10-23T08:21:39;15.40;99.90
37432;DHT22;23292;51.300;6.252;2022-10-23T08:24:11;15.40;99.90
37432;DHT22;23292;51.300;6.252;2022-10-23T08:26:43;15.60;99.90
37432;DHT22;23292;51.300;6.252;2022-10-23T08:29:11;15.60;99.90
37432;DHT22;23292;51.300;6.252;2022-10-23T08:31:40;15.70;99.90
37432;DHT22;23292;51.300;6.252;2022-10-23T08:34:21;15.60;99.90
37432;DHT22;23292;51.300;6.252;2022-10-23T08:36:49;15.60;99.90
37432;DHT22;23292;51.300;6.252;2022-10-23T08:39:16;15.70;99.90
37432;DHT22;23292;51.300;6.252;2022-10-23T08:42:03;15.60;99.90
37432;DHT22;23292;51.300;6.252;2022-10-23T08:44:42;15.60;99.90
37432;DHT22;23292;51.300;6.252;2022-10-23T08:47:25;15.60;99.90
37432;DHT22;23292;51.300;6.252;2022-10-23T08:50:29;15.70;99.90
37432;DHT22;23292;51.300;6.252;2022-10-23T08:53:43;15.70;99.90
37432;DHT22;23292;51.300;6.252;2022-10-23T08:56:06;15.80;99.90
37432;DHT22;23292;51.300;6.252;2022-10-23T09:01:39;16.10;99.90
37432;DHT22;23292;51.300;6.252;2022-10-23T09:04:11;16.10;99.90
37432;DHT22;23292;51.300;6.252;2022-10-23T09:06:55;16.20;99.90
37432;DHT22;23292;51.300;6.252;2022-10-23T09:12:20;16.20;99.90
37432;DHT22;23292;51.300;6.252;2022-10-23T09:17:34;16.20;99.90
37432;DHT22;23292;51.300;6.252;2022-10-23T09:20:24;16.30;99.90
37432;DHT22;23292;51.300;6.252;2022-10-23T09:22:58;16.30;99.90
37432;DHT22;23292;51.300;6.252;2022-10-23T09:25:33;16.40;99.90
37432;DHT22;23292;51.300;6.252;2022-10-23T09:28:01;16.30;99.90
37432;DHT22;23292;51.300;6.252;2022-10-23T09:30:34;16.30;99.90
37432;DHT22;23292;51.300;6.252;2022-10-23T09:33:25;16.40;99.90
37432;DHT22;23292;51.300;6.252;2022-10-23T09:35:58;16.60;99.90
37432;DHT22;23292;51.300;6.252;2022-10-23T09:38:54;16.70;99.90
37432;DHT22;23292;51.300;6.252;2022-10-23T09:41:27;16.70;99.90
37432;DHT22;23292;51.300;6.252;2022-10-23T09:46:45;16.70;99.90
37432;DHT22;23292;51.300;6.252;2022-10-23T09:49:30;16.80;99.90
37432;DHT22;23292;51.300;6.252;2022-10-23T09:54:36;16.60;99.90
37432;DHT22;23292;51.300;6.252;2022-10-23T09:57:41;16.70;99.90
37432;DHT22;23292;51.300;6.252;2022-10-23T10:00:21;16.60;99.90
37432;DHT22;23292;51.300;6.252;2022-10-23T10:03:03;16.60;99.90
37432;DHT22;23292;51.300;6.252;2022-10-23T10:05:42;16.80;99.90
37432;DHT22;23292;51.300;6.252;2022-10-23T10:08:50;16.90;99.90
37432;DHT22;23292;51.300;6.252;2022-10-23T10:11:49;16.90;99.90
37432;DHT22;23292;51.300;6.252;2022-10-23T10:14:22;17.10;99.90
37432;DHT22;23292;51.300;6.252;2022-10-23T10:17:03;17.10;99.90
37432;DHT22;23292;51.300;6.252;2022-10-23T10:19:52;17.10;99.90
37432;DHT22;23292;51.300;6.252;2022-10-23T10:25:20;17.20;99.90
37432;DHT22;23292;51.300;6.252;2022-10-23T10:28:30;17.30;99.90
37432;DHT22;23292;51.300;6.252;2022-10-23T10:33:51;17.40;99.90
37432;DHT22;23292;51.300;6.252;2022-10-23T10:37:23;17.40;99.90
37432;DHT22;23292;51.300;6.252;2022-10-23T10:43:02;17.30;99.90
37432;DHT22;23292;51.300;6.252;2022-10-23T10:48:27;17.20;99.90
37432;DHT22;23292;51.300;6.252;2022-10-23T10:51:29;17.20;99.90
37432;DHT22;23292;51.300;6.252;2022-10-23T10:56:38;17.30;99.90
37432;DHT22;23292;51.300;6.252;2022-10-23T10:59:29;17.30;99.90
37432;DHT22;23292;51.300;6.252;2022-10-23T11:02:20;17.40;99.90
37432;DHT22;23292;51.300;6.252;2022-10-23T11:07:33;17.60;99.90
37432;DHT22;23292;51.300;6.252;2022-10-23T11:10:11;17.70;99.90
37432;DHT22;23292;51.300;6.252;2022-10-23T11:12:41;17.70;99.90
37432;DHT22;23292;51.300;6.252;2022-10-23T11:15:15;17.80;99.90
37432;DHT22;23292;51.300;6.252;2022-10-23T11:17:46;17.80;99.90
37432;DHT22;23292;51.300;6.252;2022-10-23T11:26:23;17.90;99.90
37432;DHT22;23292;51.300;6.252;2022-10-23T11:29:02;17.80;99.90
37432;DHT22;23292;51.300;6.252;2022-10-23T11:31:44;17.80;99.90
37432;DHT22;23292;51.300;6.252;2022-10-23T11:34:32;17.90;99.90
37432;DHT22;23292;51.300;6.252;2022-10-23T11:37:02;18.00;99.90
37432;DHT22;23292;51.300;6.252;2022-10-23T11:39:32;18.10;99.90
37432;DHT22;23292;51.300;6.252;2022-10-23T11:47:54;18.60;99.90
37432;DHT22;23292;51.300;6.252;2022-10-23T11:50:12;18.70;99.90
37432;DHT22;23292;51.300;6.252;2022-10-23T11:52:52;19.00;99.90
37432;DHT22;23292;51.300;6.252;2022-10-23T11:55:38;19.10;99.90
37432;DHT22;23292;51.300;6.252;2022-10-23T11:58:20;19.10;99.90
37432;DHT22;23292;51.300;6.252;2022-10-23T12:00:54;19.10;99.90
37432;DHT22;23292;51.300;6.252;2022-10-23T12:03:35;19.20;99.90
37432;DHT22;23292;51.300;6.252;2022-10-23T12:06:04;19.30;99.90
37432;DHT22;23292;51.300;6.252;2022-10-23T12:08:36;19.40;99.90
37432;DHT22;23292;51.300;6.252;2022-10-23T12:11:22;19.50;99.90
37432;DHT22;23292;51.300;6.252;2022-10-23T12:13:53;19.70;99.90
37432;DHT22;23292;51.300;6.252;2022-10-23T12:16:20;19.70;99.90
37432;DHT22;23292;51.300;6.252;2022-10-23T12:18:52;19.50;99.90
37432;DHT22;23292;51.300;6.252;2022-10-23T12:21:24;19.50;99.90
37432;DHT22;23292;51.300;6.252;2022-10-23T12:29:26;19.30;99.90
37432;DHT22;23292;51.300;6.252;2022-10-23T12:32:01;19.30;99.90
37432;DHT22;23292;51.300;6.252;2022-10-23T12:35:02;19.40;99.90
37432;DHT22;23292;51.300;6.252;2022-10-23T12:38:07;19.50;99.90
37432;DHT22;23292;51.300;6.252;2022-10-23T12:40:35;19.70;99.90
37432;DHT22;23292;51.300;6.252;2022-10-23T12:43:02;19.60;99.90
37432;DHT22;23292;51.300;6.252;2022-10-23T12:45:37;19.70;99.90
37432;DHT22;23292;51.300;6.252;2022-10-23T12:48:05;19.60;99.90
37432;DHT22;23292;51.300;6.252;2022-10-23T12:50:33;19.60;99.90
37432;DHT22;23292;51.300;6.252;2022-10-23T12:53:02;19.40;99.90
37432;DHT22;23292;51.300;6.252;2022-10-23T12:55:46;19.40;99.90
37432;DHT22;23292;51.300;6.252;2022-10-23T12:58:19;19.60;99.90
37432;DHT22;23292;51.300;6.252;2022-10-23T13:00:53;19.60;99.90
37432;DHT22;23292;51.300;6.252;2022-10-23T13:03:22;19.60;99.90
37432;DHT22;23292;51.300;6.252;2022-10-23T13:05:50;19.60;99.90
37432;DHT22;23292;51.300;6.252;2022-10-23T13:08:19;19.60;99.90
37432;DHT22;23292;51.300;6.252;2022-10-23T13:11:10;19.50;99.90
37432;DHT22;23292;51.300;6.252;2022-10-23T13:13:40;19.40;99.90
37432;DHT22;23292;51.300;6.252;2022-10-23T13:16:15;19.40;99.90
37432;DHT22;23292;51.300;6.252;2022-10-23T13:18:42;19.40;99.90
37432;DHT22;23292;51.300;6.252;2022-10-23T13:21:26;19.40;99.90
37432;DHT22;23292;51.300;6.252;2022-10-23T13:23:56;19.40;99.90
37432;DHT22;23292;51.300;6.252;2022-10-23T13:26:34;19.50;99.90
37432;DHT22;23292;51.300;6.252;2022-10-23T13:29:29;19.50;99.90
37432;DHT22;23292;51.300;6.252;2022-10-23T13:31:56;19.40;99.90
37432;DHT22;23292;51.300;6.252;2022-10-23T13:34:29;19.50;99.90
37432;DHT22;23292;51.300;6.252;2022-10-23T13:40:04;19.60;99.90
37432;DHT22;23292;51.300;6.252;2022-10-23T13:42:35;19.50;99.90
37432;DHT22;23292;51.300;6.252;2022-10-23T13:45:02;19.50;99.90
37432;DHT22;23292;51.300;6.252;2022-10-23T13:47:28;19.50;99.90
37432;DHT22;23292;51.300;6.252;2022-10-23T13:49:55;19.40;99.90
37432;DHT22;23292;51.300;6.252;2022-10-23T13:52:22;19.40;99.90
37432;DHT22;23292;51.300;6.252;2022-10-23T13:54:51;19.40;99.90
37432;DHT22;23292;51.300;6.252;2022-10-23T13:57:18;19.40;99.90
37432;DHT22;23292;51.300;6.252;2022-10-23T13:59:44;19.30;99.90
37432;DHT22;23292;51.300;6.252;2022-10-23T14:02:18;19.20;99.90
37432;DHT22;23292;51.300;6.252;2022-10-23T14:04:46;19.10;99.90
37432;DHT22;23292;51.300;6.252;2022-10-23T14:07:13;19.10;99.90
37432;DHT22;23292;51.300;6.252;2022-10-23T14:09:40;19.20;99.90
37432;DHT22;23292;51.300;6.252;2022-10-23T14:12:06;19.00;99.90
37432;DHT22;23292;51.300;6.252;2022-10-23T14:14:33;19.00;99.90
37432;DHT22;23292;51.300;6.252;2022-10-23T14:17:00;19.10;99.90
37432;DHT22;23292;51.300;6.252;2022-10-23T14:19:26;19.10;99.90
37432;DHT22;23292;51.300;6.252;2022-10-23T14:21:53;19.10;99.90
37432;DHT22;23292;51.300;6.252;2022-10-23T14:24:20;19.00;99.90
37432;DHT22;23292;51.300;6.252;2022-10-23T14:26:46;19.00;99.90
37432;DHT22;23292;51.300;6.252;2022-10-23T14:29:13;19.10;99.90
37432;DHT22;23292;51.300;6.252;2022-10-23T14:31:49;19.00;99.90
37432;DHT22;23292;51.300;6.252;2022-10-23T14:34:16;19.00;99.90
37432;DHT22;23292;51.300;6.252;2022-10-23T14:36:42;19.00;99.90
37432;DHT22;23292;51.300;6.252;2022-10-23T14:39:22;18.90;99.90
37432;DHT22;23292;51.300;6.252;2022-10-23T14:41:49;18.80;99.90
37432;DHT22;23292;51.300;6.252;2022-10-23T14:44:15;18.80;99.90
37432;DHT22;23292;51.300;6.252;2022-10-23T14:46:42;18.70;99.90
37432;DHT22;23292;51.300;6.252;2022-10-23T14:49:08;18.70;99.90
37432;DHT22;23292;51.300;6.252;2022-10-23T14:51:35;18.60;99.90
37432;DHT22;23292;51.300;6.252;2022-10-23T14:54:04;18.50;99.90
37432;DHT22;23292;51.300;6.252;2022-10-23T14:56:33;18.30;99.90
37432;DHT22;23292;51.300;6.252;2022-10-23T14:59:00;18.30;99.90
37432;DHT22;23292;51.300;6.252;2022-10-23T15:01:36;18.30;99.90
37432;DHT22;23292;51.300;6.252;2022-10-23T15:04:08;18.10;99.90
37432;DHT22;23292;51.300;6.252;2022-10-23T15:06:35;18.20;99.90
37432;DHT22;23292;51.300;6.252;2022-10-23T15:09:03;18.20;99.90
37432;DHT22;23292;51.300;6.252;2022-10-23T15:11:30;18.10;99.90
37432;DHT22;23292;51.300;6.252;2022-10-23T15:13:58;18.10;99.90
37432;DHT22;23292;51.300;6.252;2022-10-23T15:16:25;18.20;99.90
37432;DHT22;23292;51.300;6.252;2022-10-23T15:18:52;18.00;99.90
37432;DHT22;23292;51.300;6.252;2022-10-23T15:21:19;18.00;99.90
37432;DHT22;23292;51.300;6.252;2022-10-23T15:23:46;18.00;99.90
37432;DHT22;23292;51.300;6.252;2022-10-23T15:26:16;18.10;99.90
37432;DHT22;23292;51.300;6.252;2022-10-23T15:28:47;18.00;99.90
37432;DHT22;23292;51.300;6.252;2022-10-23T15:34:20;18.20;99.90
37432;DHT22;23292;51.300;6.252;2022-10-23T15:36:48;18.10;99.90
37432;DHT22;23292;51.300;6.252;2022-10-23T15:39:18;18.20;99.90
37432;DHT22;23292;51.300;6.252;2022-10-23T15:41:45;18.10;99.90
37432;DHT22;23292;51.300;6.252;2022-10-23T15:44:14;18.10;99.90
37432;DHT22;23292;51.300;6.252;2022-10-23T15:46:41;18.10;99.90
37432;DHT22;23292;51.300;6.252;2022-10-23T15:49:08;18.00;99.90
37432;DHT22;23292;51.300;6.252;2022-10-23T15:51:36;18.00;99.90
37432;DHT22;23292;51.300;6.252;2022-10-23T15:54:05;17.90;99.90
37432;DHT22;23292;51.300;6.252;2022-10-23T15:56:33;17.90;99.90
37432;DHT22;23292;51.300;6.252;2022-10-23T15:59:00;17.90;99.90
37432;DHT22;23292;51.300;6.252;2022-10-23T16:01:27;17.80;99.90
37432;DHT22;23292;51.300;6.252;2022-10-23T16:03:54;17.70;99.90
37432;DHT22;23292;51.300;6.252;2022-10-23T16:06:21;17.80;99.90
37432;DHT22;23292;51.300;6.252;2022-10-23T16:08:48;17.70;99.90
37432;DHT22;23292;51.300;6.252;2022-10-23T16:11:21;17.60;99.90
37432;DHT22;23292;51.300;6.252;2022-10-23T16:13:48;17.60;99.90
37432;DHT22;23292;51.300;6.252;2022-10-23T16:16:16;17.60;99.90
37432;DHT22;23292;51.300;6.252;2022-10-23T16:18:43;17.60;99.90
37432;DHT22;23292;51.300;6.252;2022-10-23T16:23:45;17.60;99.90
37432;DHT22;23292;51.300;6.252;2022-10-23T16:26:12;17.60;99.90
37432;DHT22;23292;51.300;6.252;2022-10-23T16:28:40;17.70;99.90
37432;DHT22;23292;51.300;6.252;2022-10-23T16:31:11;17.70;99.90
37432;DHT22;23292;51.300;6.252;2022-10-23T16:33:45;17.60;99.90
37432;DHT22;23292;51.300;6.252;2022-10-23T16:36:11;17.50;99.90
37432;DHT22;23292;51.300;6.252;2022-10-23T16:38:57;17.50;99.90
37432;DHT22;23292;51.300;6.252;2022-10-23T16:41:47;17.40;99.90
37432;DHT22;23292;51.300;6.252;2022-10-23T16:44:16;17.30;99.90
37432;DHT22;23292;51.300;6.252;2022-10-23T16:46:55;17.30;99.90
37432;DHT22;23292;51.300;6.252;2022-10-23T16:49:22;17.30;99.90
37432;DHT22;23292;51.300;6.252;2022-10-23T16:51:49;17.20;99.90
37432;DHT22;23292;51.300;6.252;2022-10-23T16:54:15;17.20;99.90
37432;DHT22;23292;51.300;6.252;2022-10-23T16:56:43;17.20;99.90
37432;DHT22;23292;51.300;6.252;2022-10-23T16:59:10;17.20;99.90
37432;DHT22;23292;51.300;6.252;2022-10-23T17:01:37;17.20;99.90
37432;DHT22;23292;51.300;6.252;2022-10-23T17:04:05;17.10;99.90
37432;DHT22;23292;51.300;6.252;2022-10-23T17:06:32;17.10;99.90
37432;DHT22;23292;51.300;6.252;2022-10-23T17:09:01;17.10;99.90
37432;DHT22;23292;51.300;6.252;2022-10-23T17:11:33;17.20;99.90
37432;DHT22;23292;51.300;6.252;2022-10-23T17:14:05;17.10;99.90
37432;DHT22;23292;51.300;6.252;2022-10-23T17:16:39;17.20;99.90
37432;DHT22;23292;51.300;6.252;2022-10-23T17:19:08;17.10;99.90
37432;DHT22;23292;51.300;6.252;2022-10-23T17:21:54;17.00;99.90
37432;DHT22;23292;51.300;6.252;2022-10-23T17:24:21;17.00;99.90
37432;DHT22;23292;51.300;6.252;2022-10-23T17:26:48;17.00;99.90
37432;DHT22;23292;51.300;6.252;2022-10-23T17:29:16;17.00;99.90
37432;DHT22;23292;51.300;6.252;2022-10-23T17:31:45;17.00;99.90
37432;DHT22;23292;51.300;6.252;2022-10-23T17:34:15;17.00;99.90
37432;DHT22;23292;51.300;6.252;2022-10-23T17:36:45;17.00;99.90